EWG7754 EDDH-LOWW
Flight info
| Callsign | EWG7754 |
|---|---|
| Flight time | N/A |
| Altitude | 35000 |
| Route | AMLUH2C AMLUH M852 DENIX DCT ZUCKA DCT OMELO DCT EVIKU DCT BITSI DCT MIKOV MIKOV8W |
| Aircraft | A320/M-SDE3FGHIRWY/LB1 |
Departure
| Time | 2026-04-20 16:08 |
|---|---|
| Airport | Hamburg Helmut Schmidt Airport (EDDH) |
Arrival
| Time | N/A |
|---|---|
| Airport | Vienna International Airport (LOWW) |
| Time | Latitude | Longitude | Altitude | Speed | Heading |
|---|---|---|---|---|---|
| 2026-04-20 15:12 | 53.63206 | 10.00361 | 41 ft | 0 kts | 86° |
| 2026-04-20 15:54 | 53.63205 | 10.00341 | 48 ft | 2 kts | 86° |
| 2026-04-20 15:54 | 53.63204 | 10.00313 | 48 ft | 2 kts | 87° |
| 2026-04-20 15:54 | 53.63203 | 10.00285 | 48 ft | 2 kts | 91° |
| 2026-04-20 15:54 | 53.63205 | 10.00257 | 48 ft | 2 kts | 125° |
| 2026-04-20 15:55 | 53.63215 | 10.00245 | 42 ft | 1 kts | 174° |
| 2026-04-20 15:55 | 53.63217 | 10.00245 | 42 ft | 0 kts | 174° |
| 2026-04-20 15:59 | 53.63180 | 10.00251 | 48 ft | 8 kts | 175° |
| 2026-04-20 15:59 | 53.63125 | 10.00258 | 48 ft | 7 kts | 176° |
| 2026-04-20 15:59 | 53.63077 | 10.00262 | 48 ft | 6 kts | 181° |
| 2026-04-20 16:00 | 53.63041 | 10.00234 | 47 ft | 6 kts | 212° |
| 2026-04-20 16:00 | 53.62978 | 10.00165 | 48 ft | 16 kts | 213° |
| 2026-04-20 16:00 | 53.62885 | 10.00063 | 48 ft | 15 kts | 216° |
| 2026-04-20 16:00 | 53.62805 | 9.99961 | 47 ft | 15 kts | 209° |
| 2026-04-20 16:01 | 53.62715 | 9.99879 | 44 ft | 14 kts | 208° |
| 2026-04-20 16:01 | 53.62650 | 9.99801 | 44 ft | 10 kts | 233° |
| 2026-04-20 16:01 | 53.62632 | 9.99705 | 47 ft | 8 kts | 260° |
| 2026-04-20 16:01 | 53.62623 | 9.99621 | 47 ft | 7 kts | 258° |
| 2026-04-20 16:02 | 53.62613 | 9.99535 | 47 ft | 8 kts | 259° |
| 2026-04-20 16:02 | 53.62603 | 9.99450 | 45 ft | 7 kts | 259° |
| 2026-04-20 16:02 | 53.62592 | 9.99346 | 45 ft | 14 kts | 259° |
| 2026-04-20 16:02 | 53.62574 | 9.99186 | 47 ft | 13 kts | 258° |
| 2026-04-20 16:03 | 53.62557 | 9.99043 | 47 ft | 12 kts | 259° |
| 2026-04-20 16:03 | 53.62542 | 9.98914 | 47 ft | 10 kts | 259° |
| 2026-04-20 16:03 | 53.62530 | 9.98800 | 47 ft | 9 kts | 259° |
| 2026-04-20 16:03 | 53.62519 | 9.98702 | 45 ft | 8 kts | 259° |
| 2026-04-20 16:04 | 53.62509 | 9.98617 | 47 ft | 7 kts | 259° |
| 2026-04-20 16:04 | 53.62500 | 9.98537 | 47 ft | 10 kts | 259° |
| 2026-04-20 16:04 | 53.62487 | 9.98426 | 47 ft | 17 kts | 259° |
| 2026-04-20 16:04 | 53.62466 | 9.98245 | 47 ft | 15 kts | 256° |
| 2026-04-20 16:05 | 53.62429 | 9.98095 | 47 ft | 13 kts | 239° |
| 2026-04-20 16:05 | 53.62375 | 9.97979 | 47 ft | 12 kts | 229° |
| 2026-04-20 16:05 | 53.62325 | 9.97878 | 47 ft | 11 kts | 230° |
| 2026-04-20 16:05 | 53.62281 | 9.97789 | 47 ft | 9 kts | 230° |
| 2026-04-20 16:06 | 53.62243 | 9.97711 | 47 ft | 8 kts | 230° |
| 2026-04-20 16:06 | 53.62202 | 9.97629 | 47 ft | 10 kts | 230° |
| 2026-04-20 16:06 | 53.62179 | 9.97528 | 47 ft | 9 kts | 266° |
| 2026-04-20 16:06 | 53.62196 | 9.97430 | 42 ft | 10 kts | 304° |
| 2026-04-20 16:07 | 53.62259 | 9.97354 | 40 ft | 9 kts | 334° |
| 2026-04-20 16:07 | 53.62300 | 9.97340 | 40 ft | 5 kts | 13° |
| 2026-04-20 16:07 | 53.62339 | 9.97407 | 40 ft | 16 kts | 51° |
| 2026-04-20 16:07 | 53.62555 | 9.97845 | 41 ft | 83 kts | 50° |
| 2026-04-20 16:08 | 53.63053 | 9.98851 | 47 ft | 137 kts | 50° |
| 2026-04-20 16:08 | 53.63665 | 10.00116 | 686 ft | 136 kts | 51° |
| 2026-04-20 16:08 | 53.64246 | 10.01338 | 1467 ft | 133 kts | 50° |
| 2026-04-20 16:08 | 53.64829 | 10.02554 | 2183 ft | 132 kts | 51° |
| 2026-04-20 16:09 | 53.65412 | 10.03745 | 2835 ft | 131 kts | 52° |
| 2026-04-20 16:09 | 53.66001 | 10.04953 | 3385 ft | 140 kts | 52° |
| 2026-04-20 16:09 | 53.66660 | 10.06314 | 3768 ft | 160 kts | 52° |
| 2026-04-20 16:09 | 53.67410 | 10.07851 | 4075 ft | 182 kts | 51° |
| 2026-04-20 16:10 | 53.68265 | 10.09591 | 4471 ft | 199 kts | 51° |
| 2026-04-20 16:10 | 53.69174 | 10.11416 | 5179 ft | 204 kts | 51° |
| 2026-04-20 16:10 | 53.70091 | 10.13260 | 5997 ft | 206 kts | 53° |
| 2026-04-20 16:10 | 53.70715 | 10.15393 | 6713 ft | 209 kts | 79° |
| 2026-04-20 16:11 | 53.70589 | 10.17847 | 7444 ft | 216 kts | 109° |
| 2026-04-20 16:11 | 53.69655 | 10.19969 | 7915 ft | 243 kts | 141° |
| 2026-04-20 16:11 | 53.67987 | 10.21118 | 8338 ft | 271 kts | 160° |
| 2026-04-20 16:11 | 53.66129 | 10.21970 | 9104 ft | 280 kts | 161° |
| 2026-04-20 16:12 | 53.64232 | 10.22783 | 9971 ft | 283 kts | 162° |
| 2026-04-20 16:12 | 53.62286 | 10.23611 | 10592 ft | 296 kts | 161° |
| 2026-04-20 16:12 | 53.60215 | 10.24515 | 10881 ft | 319 kts | 161° |
| 2026-04-20 16:12 | 53.58055 | 10.25471 | 11489 ft | 329 kts | 161° |
| 2026-04-20 16:13 | 53.55819 | 10.26465 | 12239 ft | 334 kts | 161° |
| 2026-04-20 16:13 | 53.53560 | 10.27472 | 13019 ft | 338 kts | 161° |
| 2026-04-20 16:13 | 53.51269 | 10.28499 | 13767 ft | 343 kts | 161° |
| 2026-04-20 16:13 | 53.48943 | 10.29544 | 14441 ft | 347 kts | 161° |
| 2026-04-20 16:14 | 53.46596 | 10.30598 | 15105 ft | 351 kts | 161° |
| 2026-04-20 16:14 | 53.44225 | 10.31662 | 15776 ft | 354 kts | 162° |
| 2026-04-20 16:14 | 53.41866 | 10.32716 | 16429 ft | 357 kts | 162° |
| 2026-04-20 16:14 | 53.39451 | 10.33798 | 17099 ft | 360 kts | 162° |
| 2026-04-20 16:15 | 53.37022 | 10.34889 | 17756 ft | 364 kts | 162° |
| 2026-04-20 16:15 | 53.34561 | 10.35999 | 18410 ft | 367 kts | 162° |
| 2026-04-20 16:15 | 53.32082 | 10.37115 | 18967 ft | 370 kts | 162° |
| 2026-04-20 16:15 | 53.29573 | 10.38245 | 19528 ft | 374 kts | 162° |
| 2026-04-20 16:16 | 53.27050 | 10.39377 | 20084 ft | 377 kts | 162° |
| 2026-04-20 16:16 | 53.24499 | 10.40517 | 20623 ft | 380 kts | 162° |
| 2026-04-20 16:16 | 53.21928 | 10.41665 | 21165 ft | 384 kts | 162° |
| 2026-04-20 16:16 | 53.19371 | 10.42802 | 21679 ft | 387 kts | 162° |
| 2026-04-20 16:17 | 53.16755 | 10.43965 | 22186 ft | 390 kts | 162° |
| 2026-04-20 16:17 | 53.14124 | 10.45135 | 22695 ft | 393 kts | 162° |
| 2026-04-20 16:17 | 53.11439 | 10.46265 | 23209 ft | 397 kts | 165° |
| 2026-04-20 16:17 | 53.08717 | 10.47221 | 23701 ft | 401 kts | 167° |
| 2026-04-20 16:18 | 53.05958 | 10.48062 | 24112 ft | 404 kts | 168° |
| 2026-04-20 16:18 | 53.03174 | 10.48853 | 24536 ft | 407 kts | 168° |
| 2026-04-20 16:18 | 53.00408 | 10.49632 | 24958 ft | 409 kts | 168° |
| 2026-04-20 16:18 | 52.97602 | 10.50446 | 25387 ft | 410 kts | 168° |
| 2026-04-20 16:19 | 52.94783 | 10.51295 | 25806 ft | 412 kts | 167° |
| 2026-04-20 16:19 | 52.91953 | 10.52169 | 26225 ft | 414 kts | 167° |
| 2026-04-20 16:19 | 52.89114 | 10.53055 | 26647 ft | 416 kts | 167° |
| 2026-04-20 16:19 | 52.86261 | 10.53947 | 27056 ft | 417 kts | 167° |
| 2026-04-20 16:20 | 52.83401 | 10.54839 | 27455 ft | 419 kts | 167° |
| 2026-04-20 16:20 | 52.81679 | 10.55372 | 27683 ft | 421 kts | 167° |
| 2026-04-20 16:20 | 52.78793 | 10.56257 | 28075 ft | 423 kts | 168° |
| 2026-04-20 16:20 | 52.75910 | 10.57135 | 28471 ft | 425 kts | 168° |
| 2026-04-20 16:21 | 52.72995 | 10.58027 | 28841 ft | 427 kts | 168° |
| 2026-04-20 16:21 | 52.70066 | 10.58929 | 29214 ft | 429 kts | 168° |
| 2026-04-20 16:21 | 52.67118 | 10.59837 | 29581 ft | 431 kts | 168° |
| 2026-04-20 16:21 | 52.64331 | 10.60693 | 29925 ft | 433 kts | 168° |
| 2026-04-20 16:22 | 52.61389 | 10.61591 | 30260 ft | 436 kts | 168° |
| 2026-04-20 16:22 | 52.58394 | 10.62499 | 30533 ft | 438 kts | 168° |
| 2026-04-20 16:22 | 52.55378 | 10.63415 | 30796 ft | 441 kts | 168° |
| 2026-04-20 16:22 | 52.52357 | 10.64335 | 31043 ft | 443 kts | 168° |
| 2026-04-20 16:23 | 52.49312 | 10.65263 | 31290 ft | 446 kts | 168° |
| 2026-04-20 16:23 | 52.46274 | 10.66183 | 31490 ft | 449 kts | 168° |
| 2026-04-20 16:23 | 52.43187 | 10.67116 | 31769 ft | 451 kts | 169° |
| 2026-04-20 16:23 | 52.40097 | 10.68053 | 32115 ft | 451 kts | 169° |
| 2026-04-20 16:24 | 52.37007 | 10.68993 | 32448 ft | 451 kts | 169° |
| 2026-04-20 16:24 | 52.33913 | 10.69931 | 32784 ft | 452 kts | 169° |
| 2026-04-20 16:24 | 52.30806 | 10.70865 | 33133 ft | 453 kts | 170° |
| 2026-04-20 16:24 | 52.27704 | 10.71793 | 33454 ft | 453 kts | 170° |
| 2026-04-20 16:25 | 52.24596 | 10.72720 | 33788 ft | 453 kts | 170° |
| 2026-04-20 16:25 | 52.21531 | 10.73634 | 34120 ft | 453 kts | 170° |
| 2026-04-20 16:25 | 52.18382 | 10.74574 | 34415 ft | 453 kts | 171° |
| 2026-04-20 16:25 | 52.15312 | 10.75490 | 34679 ft | 454 kts | 171° |
| 2026-04-20 16:26 | 52.12203 | 10.76419 | 34935 ft | 454 kts | 171° |
| 2026-04-20 16:26 | 52.09088 | 10.77349 | 35100 ft | 455 kts | 171° |
| 2026-04-20 16:26 | 52.02921 | 10.79194 | 35151 ft | 446 kts | 171° |
| 2026-04-20 16:27 | 51.96855 | 10.80999 | 35149 ft | 445 kts | 171° |
| 2026-04-20 16:27 | 51.90749 | 10.82805 | 35147 ft | 445 kts | 171° |
| 2026-04-20 16:28 | 51.84646 | 10.84598 | 35143 ft | 445 kts | 171° |
| 2026-04-20 16:28 | 51.78575 | 10.86372 | 35144 ft | 445 kts | 171° |
| 2026-04-20 16:29 | 51.72548 | 10.88722 | 35142 ft | 447 kts | 158° |
| 2026-04-20 16:29 | 51.69809 | 10.91103 | 35134 ft | 449 kts | 146° |
| 2026-04-20 16:29 | 51.67416 | 10.94341 | 35133 ft | 450 kts | 134° |
| 2026-04-20 16:30 | 51.65501 | 10.98229 | 35127 ft | 450 kts | 122° |
| 2026-04-20 16:30 | 51.64074 | 11.02710 | 35121 ft | 450 kts | 111° |
| 2026-04-20 16:30 | 51.61713 | 11.12072 | 35114 ft | 451 kts | 112° |
| 2026-04-20 16:31 | 51.59329 | 11.21415 | 35113 ft | 452 kts | 112° |
| 2026-04-20 16:31 | 51.56946 | 11.30734 | 35114 ft | 452 kts | 112° |
| 2026-04-20 16:32 | 51.54547 | 11.40092 | 35114 ft | 453 kts | 112° |
| 2026-04-20 16:32 | 51.52128 | 11.49470 | 35117 ft | 453 kts | 112° |
| 2026-04-20 16:33 | 51.49701 | 11.58834 | 35114 ft | 453 kts | 112° |
| 2026-04-20 16:33 | 51.47289 | 11.68125 | 35115 ft | 454 kts | 112° |
| 2026-04-20 16:34 | 51.44857 | 11.77487 | 35113 ft | 454 kts | 113° |
| 2026-04-20 16:34 | 51.42413 | 11.86840 | 35116 ft | 454 kts | 113° |
| 2026-04-20 16:35 | 51.39964 | 11.96154 | 35112 ft | 454 kts | 113° |
| 2026-04-20 16:35 | 51.37514 | 12.05417 | 35110 ft | 454 kts | 113° |
| 2026-04-20 16:36 | 51.35041 | 12.14736 | 35109 ft | 454 kts | 114° |
| 2026-04-20 16:36 | 51.32574 | 12.23985 | 35112 ft | 454 kts | 114° |
| 2026-04-20 16:37 | 51.30091 | 12.33268 | 35111 ft | 454 kts | 114° |
| 2026-04-20 16:37 | 51.27603 | 12.42564 | 35108 ft | 454 kts | 114° |
| 2026-04-20 16:38 | 51.25128 | 12.51777 | 35103 ft | 454 kts | 114° |
| 2026-04-20 16:38 | 51.22624 | 12.61047 | 35103 ft | 454 kts | 114° |
| 2026-04-20 16:39 | 51.20107 | 12.70289 | 35098 ft | 454 kts | 115° |
| 2026-04-20 16:39 | 51.17591 | 12.79490 | 35097 ft | 454 kts | 115° |
| 2026-04-20 16:40 | 51.15051 | 12.88749 | 35090 ft | 455 kts | 115° |
| 2026-04-20 16:40 | 51.12519 | 12.97994 | 35079 ft | 455 kts | 115° |
| 2026-04-20 16:41 | 51.09992 | 13.07181 | 35074 ft | 455 kts | 115° |
| 2026-04-20 16:41 | 51.07435 | 13.16407 | 35071 ft | 455 kts | 115° |
| 2026-04-20 16:42 | 51.04886 | 13.25556 | 35062 ft | 455 kts | 115° |
| 2026-04-20 16:42 | 51.02311 | 13.34758 | 35059 ft | 455 kts | 115° |
| 2026-04-20 16:43 | 50.99733 | 13.43973 | 35053 ft | 456 kts | 115° |
| 2026-04-20 16:43 | 50.97150 | 13.53162 | 35055 ft | 456 kts | 115° |
| 2026-04-20 16:44 | 50.94569 | 13.62296 | 35049 ft | 456 kts | 116° |
| 2026-04-20 16:44 | 50.91970 | 13.71472 | 35051 ft | 456 kts | 116° |
| 2026-04-20 16:45 | 50.89357 | 13.80659 | 35049 ft | 456 kts | 116° |
| 2026-04-20 16:45 | 50.86752 | 13.89760 | 35050 ft | 456 kts | 116° |
| 2026-04-20 16:46 | 50.83882 | 13.98725 | 35050 ft | 453 kts | 127° |
| 2026-04-20 16:46 | 50.79686 | 14.06016 | 35052 ft | 447 kts | 140° |
| 2026-04-20 16:47 | 50.75108 | 14.12602 | 35041 ft | 447 kts | 140° |
| 2026-04-20 16:47 | 50.70503 | 14.19240 | 35042 ft | 447 kts | 141° |
| 2026-04-20 16:48 | 50.65898 | 14.25859 | 35042 ft | 448 kts | 141° |
| 2026-04-20 16:48 | 50.62065 | 14.31352 | 35042 ft | 448 kts | 141° |
| 2026-04-20 16:49 | 50.56710 | 14.39021 | 35038 ft | 448 kts | 141° |
| 2026-04-20 16:49 | 50.52865 | 14.44510 | 35037 ft | 448 kts | 141° |
| 2026-04-20 16:50 | 50.48238 | 14.51081 | 35039 ft | 448 kts | 141° |
| 2026-04-20 16:50 | 50.43626 | 14.57688 | 35034 ft | 449 kts | 140° |
| 2026-04-20 16:51 | 50.39131 | 14.64532 | 35030 ft | 450 kts | 139° |
| 2026-04-20 16:51 | 50.34695 | 14.71388 | 35034 ft | 450 kts | 139° |
| 2026-04-20 16:52 | 50.30197 | 14.78253 | 35034 ft | 450 kts | 140° |
| 2026-04-20 16:52 | 50.25708 | 14.85006 | 35046 ft | 450 kts | 140° |
| 2026-04-20 16:53 | 50.21174 | 14.91769 | 35042 ft | 450 kts | 140° |
| 2026-04-20 16:53 | 50.16649 | 14.98525 | 35043 ft | 450 kts | 140° |
| 2026-04-20 16:54 | 50.12147 | 15.05247 | 35028 ft | 450 kts | 140° |
| 2026-04-20 16:54 | 50.07623 | 15.12005 | 35029 ft | 450 kts | 140° |
| 2026-04-20 16:55 | 50.03089 | 15.18757 | 35023 ft | 450 kts | 140° |
| 2026-04-20 16:55 | 49.98549 | 15.25481 | 35030 ft | 450 kts | 140° |
| 2026-04-20 16:56 | 49.94034 | 15.32133 | 35031 ft | 450 kts | 141° |
| 2026-04-20 16:56 | 49.89487 | 15.38827 | 35035 ft | 450 kts | 141° |
| 2026-04-20 16:57 | 49.84959 | 15.45483 | 35034 ft | 450 kts | 141° |
| 2026-04-20 16:57 | 49.80408 | 15.52149 | 35032 ft | 450 kts | 141° |
| 2026-04-20 16:58 | 49.75859 | 15.58799 | 35028 ft | 450 kts | 141° |
| 2026-04-20 16:58 | 49.71302 | 15.65438 | 35036 ft | 449 kts | 141° |
| 2026-04-20 16:59 | 49.66774 | 15.72006 | 34840 ft | 447 kts | 142° |
| 2026-04-20 16:59 | 49.64519 | 15.75279 | 34420 ft | 442 kts | 142° |
| 2026-04-20 16:59 | 49.62279 | 15.78524 | 33852 ft | 441 kts | 142° |
| 2026-04-20 17:00 | 49.57834 | 15.84955 | 32769 ft | 434 kts | 143° |
| 2026-04-20 17:00 | 49.55638 | 15.88128 | 32255 ft | 430 kts | 143° |
| 2026-04-20 17:00 | 49.53457 | 15.91273 | 31727 ft | 427 kts | 143° |
| 2026-04-20 17:01 | 49.51292 | 15.94393 | 31234 ft | 423 kts | 143° |
| 2026-04-20 17:01 | 49.49171 | 15.97445 | 30725 ft | 420 kts | 143° |
| 2026-04-20 17:01 | 49.47033 | 16.00513 | 30246 ft | 416 kts | 143° |
| 2026-04-20 17:01 | 49.44917 | 16.03546 | 29729 ft | 412 kts | 143° |
| 2026-04-20 17:02 | 49.42854 | 16.06494 | 29275 ft | 407 kts | 143° |
| 2026-04-20 17:02 | 49.40788 | 16.09447 | 28837 ft | 402 kts | 143° |
| 2026-04-20 17:02 | 49.38754 | 16.12351 | 28380 ft | 397 kts | 143° |
| 2026-04-20 17:02 | 49.36744 | 16.15208 | 27952 ft | 392 kts | 143° |
| 2026-04-20 17:03 | 49.34749 | 16.18042 | 27510 ft | 388 kts | 143° |
| 2026-04-20 17:03 | 49.32778 | 16.20847 | 27079 ft | 384 kts | 143° |
| 2026-04-20 17:03 | 49.30731 | 16.23398 | 26667 ft | 374 kts | 152° |
| 2026-04-20 17:03 | 49.28541 | 16.25346 | 26269 ft | 364 kts | 160° |
| 2026-04-20 17:04 | 49.26257 | 16.26908 | 26009 ft | 350 kts | 169° |
| 2026-04-20 17:04 | 49.23956 | 16.27831 | 25929 ft | 334 kts | 172° |
| 2026-04-20 17:04 | 49.21714 | 16.28680 | 25848 ft | 333 kts | 172° |
| 2026-04-20 17:04 | 49.19385 | 16.29540 | 25609 ft | 351 kts | 172° |
| 2026-04-20 17:05 | 49.16984 | 16.30422 | 25355 ft | 356 kts | 172° |